sensor_id;sensor_type;location;lat;lon;timestamp;pressure;altitude;pressure_sealevel;temperature;humidity
59009;BME280;44794;42.652;23.318;2022-12-18T00:01:49;95160.19;;;6.38;100.00
59009;BME280;44794;42.652;23.318;2022-12-18T00:04:25;95167.13;;;6.37;100.00
59009;BME280;44794;42.652;23.318;2022-12-18T00:06:52;95162.22;;;6.31;100.00
59009;BME280;44794;42.652;23.318;2022-12-18T00:09:18;95164.19;;;6.26;100.00
59009;BME280;44794;42.652;23.318;2022-12-18T00:11:43;95175.03;;;6.16;100.00
59009;BME280;44794;42.652;23.318;2022-12-18T00:14:10;95164.41;;;6.05;100.00
59009;BME280;44794;42.652;23.318;2022-12-18T00:16:36;95171.25;;;6.06;100.00
59009;BME280;44794;42.652;23.318;2022-12-18T00:19:03;95166.34;;;6.00;100.00
59009;BME280;44794;42.652;23.318;2022-12-18T00:21:29;95174.25;;;5.97;100.00
59009;BME280;44794;42.652;23.318;2022-12-18T00:23:55;95172.78;;;5.92;100.00
59009;BME280;44794;42.652;23.318;2022-12-18T00:26:26;95181.38;;;5.92;100.00
59009;BME280;44794;42.652;23.318;2022-12-18T00:28:53;95170.81;;;5.96;100.00
59009;BME280;44794;42.652;23.318;2022-12-18T00:31:22;95183.94;;;5.92;100.00
59009;BME280;44794;42.652;23.318;2022-12-18T00:33:47;95183.84;;;5.94;100.00
59009;BME280;44794;42.652;23.318;2022-12-18T00:36:18;95184.69;;;5.94;100.00
59009;BME280;44794;42.652;23.318;2022-12-18T00:38:44;95178.22;;;5.86;100.00
59009;BME280;44794;42.652;23.318;2022-12-18T00:41:11;95187.72;;;5.85;100.00
59009;BME280;44794;42.652;23.318;2022-12-18T00:43:37;95189.00;;;5.75;100.00
59009;BME280;44794;42.652;23.318;2022-12-18T00:46:03;95189.72;;;5.79;100.00
59009;BME280;44794;42.652;23.318;2022-12-18T00:48:29;95195.69;;;5.79;100.00
59009;BME280;44794;42.652;23.318;2022-12-18T00:50:55;95193.00;;;5.82;100.00
59009;BME280;44794;42.652;23.318;2022-12-18T00:53:20;95193.00;;;5.82;100.00
59009;BME280;44794;42.652;23.318;2022-12-18T00:55:46;95194.78;;;5.80;100.00
59009;BME280;44794;42.652;23.318;2022-12-18T00:58:13;95199.25;;;5.77;100.00
59009;BME280;44794;42.652;23.318;2022-12-18T01:00:39;95207.84;;;5.76;100.00
59009;BME280;44794;42.652;23.318;2022-12-18T01:03:05;95208.28;;;5.67;100.00
59009;BME280;44794;42.652;23.318;2022-12-18T01:05:31;95211.91;;;5.63;100.00
59009;BME280;44794;42.652;23.318;2022-12-18T01:07:57;95211.34;;;5.56;100.00
59009;BME280;44794;42.652;23.318;2022-12-18T01:10:23;95220.75;;;5.57;100.00
59009;BME280;44794;42.652;23.318;2022-12-18T01:12:49;95216.22;;;5.44;100.00
59009;BME280;44794;42.652;23.318;2022-12-18T01:15:15;95219.59;;;5.44;100.00
59009;BME280;44794;42.652;23.318;2022-12-18T01:17:42;95227.47;;;5.41;100.00
59009;BME280;44794;42.652;23.318;2022-12-18T01:20:09;95212.72;;;5.45;100.00
59009;BME280;44794;42.652;23.318;2022-12-18T01:22:35;95221.91;;;5.32;100.00
59009;BME280;44794;42.652;23.318;2022-12-18T01:25:01;95228.06;;;5.28;100.00
59009;BME280;44794;42.652;23.318;2022-12-18T01:27:26;95228.84;;;5.30;100.00
59009;BME280;44794;42.652;23.318;2022-12-18T01:29:52;95230.84;;;5.23;100.00
59009;BME280;44794;42.652;23.318;2022-12-18T01:32:17;95241.69;;;5.12;100.00
59009;BME280;44794;42.652;23.318;2022-12-18T01:34:43;95243.53;;;5.08;100.00
59009;BME280;44794;42.652;23.318;2022-12-18T01:37:09;95245.31;;;5.08;100.00
59009;BME280;44794;42.652;23.318;2022-12-18T01:39:34;95246.31;;;5.04;100.00
59009;BME280;44794;42.652;23.318;2022-12-18T01:42:10;95251.72;;;4.98;100.00
59009;BME280;44794;42.652;23.318;2022-12-18T01:47:27;95256.78;;;4.79;100.00
59009;BME280;44794;42.652;23.318;2022-12-18T01:49:54;95255.13;;;4.78;100.00
59009;BME280;44794;42.652;23.318;2022-12-18T01:52:22;95249.16;;;4.78;100.00
59009;BME280;44794;42.652;23.318;2022-12-18T01:54:49;95247.81;;;4.69;100.00
59009;BME280;44794;42.652;23.318;2022-12-18T01:57:16;95252.88;;;4.71;100.00
59009;BME280;44794;42.652;23.318;2022-12-18T01:59:42;95257.13;;;4.72;100.00
59009;BME280;44794;42.652;23.318;2022-12-18T02:02:11;95253.59;;;4.74;100.00
59009;BME280;44794;42.652;23.318;2022-12-18T02:04:36;95257.88;;;4.74;100.00
59009;BME280;44794;42.652;23.318;2022-12-18T02:07:19;95261.13;;;4.79;100.00
59009;BME280;44794;42.652;23.318;2022-12-18T02:09:50;95266.44;;;4.74;100.00
59009;BME280;44794;42.652;23.318;2022-12-18T02:15:02;95271.50;;;4.76;100.00
59009;BME280;44794;42.652;23.318;2022-12-18T02:17:45;95275.88;;;4.74;100.00
59009;BME280;44794;42.652;23.318;2022-12-18T02:26:04;95273.56;;;4.68;100.00
59009;BME280;44794;42.652;23.318;2022-12-18T02:28:37;95278.97;;;4.62;100.00
59009;BME280;44794;42.652;23.318;2022-12-18T02:31:07;95272.03;;;4.64;100.00
59009;BME280;44794;42.652;23.318;2022-12-18T02:33:36;95283.84;;;4.68;100.00
59009;BME280;44794;42.652;23.318;2022-12-18T02:36:04;95284.88;;;4.64;100.00
59009;BME280;44794;42.652;23.318;2022-12-18T02:38:31;95285.59;;;4.67;100.00
59009;BME280;44794;42.652;23.318;2022-12-18T02:40:58;95282.41;;;4.61;100.00
59009;BME280;44794;42.652;23.318;2022-12-18T02:43:24;95292.97;;;4.55;100.00
59009;BME280;44794;42.652;23.318;2022-12-18T02:45:55;95288.59;;;4.57;100.00
59009;BME280;44794;42.652;23.318;2022-12-18T02:48:24;95285.31;;;4.53;100.00
59009;BME280;44794;42.652;23.318;2022-12-18T02:51:03;95288.13;;;4.47;100.00
59009;BME280;44794;42.652;23.318;2022-12-18T02:53:43;95286.38;;;4.48;100.00
59009;BME280;44794;42.652;23.318;2022-12-18T02:56:17;95288.88;;;4.49;100.00
59009;BME280;44794;42.652;23.318;2022-12-18T02:59:09;95295.97;;;4.44;100.00
59009;BME280;44794;42.652;23.318;2022-12-18T03:01:45;95290.09;;;4.41;100.00
59009;BME280;44794;42.652;23.318;2022-12-18T03:05:19;95294.41;;;4.41;100.00
59009;BME280;44794;42.652;23.318;2022-12-18T03:07:35;95306.00;;;4.29;100.00
59009;BME280;44794;42.652;23.318;2022-12-18T03:10:02;95311.22;;;4.28;100.00
59009;BME280;44794;42.652;23.318;2022-12-18T03:12:35;95312.34;;;4.21;100.00
59009;BME280;44794;42.652;23.318;2022-12-18T03:15:06;95300.88;;;4.29;100.00
59009;BME280;44794;42.652;23.318;2022-12-18T03:17:34;95307.78;;;4.27;100.00
59009;BME280;44794;42.652;23.318;2022-12-18T03:20:07;95304.81;;;4.38;100.00
59009;BME280;44794;42.652;23.318;2022-12-18T03:22:35;95310.13;;;4.33;100.00
59009;BME280;44794;42.652;23.318;2022-12-18T03:25:06;95318.78;;;4.31;100.00
59009;BME280;44794;42.652;23.318;2022-12-18T03:27:33;95309.88;;;4.39;100.00
59009;BME280;44794;42.652;23.318;2022-12-18T03:30:07;95318.28;;;4.44;100.00
59009;BME280;44794;42.652;23.318;2022-12-18T03:32:40;95319.00;;;4.47;100.00
59009;BME280;44794;42.652;23.318;2022-12-18T03:35:09;95327.53;;;4.48;100.00
59009;BME280;44794;42.652;23.318;2022-12-18T03:37:37;95343.59;;;4.53;100.00
59009;BME280;44794;42.652;23.318;2022-12-18T03:40:04;95348.88;;;4.50;100.00
59009;BME280;44794;42.652;23.318;2022-12-18T03:42:50;95358.47;;;4.46;100.00
59009;BME280;44794;42.652;23.318;2022-12-18T03:45:24;95366.09;;;4.48;100.00
59009;BME280;44794;42.652;23.318;2022-12-18T03:53:52;95385.31;;;4.40;100.00
59009;BME280;44794;42.652;23.318;2022-12-18T03:56:21;95401.44;;;4.43;100.00
59009;BME280;44794;42.652;23.318;2022-12-18T03:58:49;95396.63;;;4.34;100.00
59009;BME280;44794;42.652;23.318;2022-12-18T04:01:16;95391.63;;;4.31;100.00
59009;BME280;44794;42.652;23.318;2022-12-18T04:03:44;95402.69;;;4.33;100.00
59009;BME280;44794;42.652;23.318;2022-12-18T04:06:12;95395.69;;;4.37;100.00
59009;BME280;44794;42.652;23.318;2022-12-18T04:08:39;95402.75;;;4.32;100.00
59009;BME280;44794;42.652;23.318;2022-12-18T04:11:05;95419.06;;;4.31;100.00
59009;BME280;44794;42.652;23.318;2022-12-18T04:13:37;95424.03;;;4.35;100.00
59009;BME280;44794;42.652;23.318;2022-12-18T04:16:04;95425.00;;;4.33;100.00
59009;BME280;44794;42.652;23.318;2022-12-18T04:18:30;95439.47;;;4.35;100.00
59009;BME280;44794;42.652;23.318;2022-12-18T04:20:55;95437.94;;;4.30;100.00
59009;BME280;44794;42.652;23.318;2022-12-18T04:23:21;95450.56;;;4.36;100.00
59009;BME280;44794;42.652;23.318;2022-12-18T04:25:47;95438.00;;;4.28;100.00
59009;BME280;44794;42.652;23.318;2022-12-18T04:28:12;95441.25;;;4.33;100.00
59009;BME280;44794;42.652;23.318;2022-12-18T04:30:38;95442.03;;;4.35;100.00
59009;BME280;44794;42.652;23.318;2022-12-18T04:33:04;95455.91;;;4.31;100.00
59009;BME280;44794;42.652;23.318;2022-12-18T04:35:29;95469.75;;;4.27;100.00
59009;BME280;44794;42.652;23.318;2022-12-18T04:37:55;95471.50;;;4.27;100.00
59009;BME280;44794;42.652;23.318;2022-12-18T04:40:20;95479.13;;;4.28;100.00
59009;BME280;44794;42.652;23.318;2022-12-18T04:42:46;95487.97;;;4.21;100.00
59009;BME280;44794;42.652;23.318;2022-12-18T04:45:11;95476.94;;;4.18;100.00
59009;BME280;44794;42.652;23.318;2022-12-18T04:47:37;95490.53;;;4.21;100.00
59009;BME280;44794;42.652;23.318;2022-12-18T04:50:02;95498.09;;;4.26;100.00
59009;BME280;44794;42.652;23.318;2022-12-18T04:52:31;95489.97;;;4.13;100.00
59009;BME280;44794;42.652;23.318;2022-12-18T04:54:57;95501.84;;;4.16;100.00
59009;BME280;44794;42.652;23.318;2022-12-18T04:57:22;95507.06;;;4.14;100.00
59009;BME280;44794;42.652;23.318;2022-12-18T04:59:48;95510.53;;;4.13;100.00
59009;BME280;44794;42.652;23.318;2022-12-18T05:02:13;95511.38;;;4.14;100.00
59009;BME280;44794;42.652;23.318;2022-12-18T05:04:39;95516.53;;;4.12;100.00
59009;BME280;44794;42.652;23.318;2022-12-18T05:07:04;95517.41;;;4.13;100.00
59009;BME280;44794;42.652;23.318;2022-12-18T05:09:29;95524.16;;;4.15;100.00
59009;BME280;44794;42.652;23.318;2022-12-18T05:11:55;95502.34;;;4.02;100.00
59009;BME280;44794;42.652;23.318;2022-12-18T05:14:20;95525.34;;;4.05;100.00
59009;BME280;44794;42.652;23.318;2022-12-18T05:16:46;95533.97;;;4.04;100.00
59009;BME280;44794;42.652;23.318;2022-12-18T05:19:11;95520.28;;;4.04;100.00
59009;BME280;44794;42.652;23.318;2022-12-18T05:21:37;95537.44;;;4.03;100.00
59009;BME280;44794;42.652;23.318;2022-12-18T05:24:02;95538.63;;;3.93;100.00
59009;BME280;44794;42.652;23.318;2022-12-18T05:26:28;95545.34;;;3.97;100.00
59009;BME280;44794;42.652;23.318;2022-12-18T05:28:56;95542.25;;;3.88;100.00
59009;BME280;44794;42.652;23.318;2022-12-18T05:31:22;95552.50;;;3.88;100.00
59009;BME280;44794;42.652;23.318;2022-12-18T05:33:50;95552.56;;;3.86;100.00
59009;BME280;44794;42.652;23.318;2022-12-18T05:36:16;95560.34;;;3.85;100.00
59009;BME280;44794;42.652;23.318;2022-12-18T05:38:41;95566.22;;;3.88;100.00
59009;BME280;44794;42.652;23.318;2022-12-18T05:41:08;95571.81;;;3.99;100.00
59009;BME280;44794;42.652;23.318;2022-12-18T05:43:35;95567.69;;;3.95;100.00
59009;BME280;44794;42.652;23.318;2022-12-18T05:46:10;95572.84;;;3.95;100.00
59009;BME280;44794;42.652;23.318;2022-12-18T05:48:36;95574.59;;;3.93;100.00
59009;BME280;44794;42.652;23.318;2022-12-18T05:51:15;95581.91;;;3.79;100.00
59009;BME280;44794;42.652;23.318;2022-12-18T05:53:41;95579.75;;;3.68;100.00
59009;BME280;44794;42.652;23.318;2022-12-18T05:56:09;95587.00;;;3.55;100.00
59009;BME280;44794;42.652;23.318;2022-12-18T05:58:35;95580.44;;;3.47;100.00
59009;BME280;44794;42.652;23.318;2022-12-18T06:01:18;95586.19;;;3.55;100.00
59009;BME280;44794;42.652;23.318;2022-12-18T06:03:44;95587.00;;;3.55;100.00
59009;BME280;44794;42.652;23.318;2022-12-18T06:12:10;95594.63;;;3.58;100.00
59009;BME280;44794;42.652;23.318;2022-12-18T06:14:38;95592.88;;;3.59;100.00
59009;BME280;44794;42.652;23.318;2022-12-18T06:17:15;95603.84;;;3.64;100.00
59009;BME280;44794;42.652;23.318;2022-12-18T06:22:43;95609.59;;;3.71;100.00
59009;BME280;44794;42.652;23.318;2022-12-18T06:25:18;95599.09;;;3.77;100.00
59009;BME280;44794;42.652;23.318;2022-12-18T06:27:58;95603.28;;;3.81;100.00
59009;BME280;44794;42.652;23.318;2022-12-18T06:30:46;95597.34;;;3.79;100.00
59009;BME280;44794;42.652;23.318;2022-12-18T06:33:15;95607.47;;;3.84;100.00
59009;BME280;44794;42.652;23.318;2022-12-18T06:38:52;95618.38;;;3.90;100.00
59009;BME280;44794;42.652;23.318;2022-12-18T06:41:19;95626.81;;;3.94;100.00
59009;BME280;44794;42.652;23.318;2022-12-18T06:43:45;95643.09;;;3.94;100.00
59009;BME280;44794;42.652;23.318;2022-12-18T06:46:11;95629.44;;;3.92;99.48
59009;BME280;44794;42.652;23.318;2022-12-18T06:48:37;95643.78;;;3.99;98.99
59009;BME280;44794;42.652;23.318;2022-12-18T06:51:03;95644.56;;;4.01;98.93
59009;BME280;44794;42.652;23.318;2022-12-18T06:53:29;95648.84;;;4.02;98.01
59009;BME280;44794;42.652;23.318;2022-12-18T06:56:02;95655.66;;;4.03;97.96
59009;BME280;44794;42.652;23.318;2022-12-18T06:58:28;95663.44;;;4.00;97.93
59009;BME280;44794;42.652;23.318;2022-12-18T07:00:53;95654.56;;;4.10;97.92
59009;BME280;44794;42.652;23.318;2022-12-18T07:03:24;95666.41;;;4.14;96.92
59009;BME280;44794;42.652;23.318;2022-12-18T07:05:49;95671.75;;;4.08;95.92
59009;BME280;44794;42.652;23.318;2022-12-18T07:08:14;95670.72;;;4.14;96.06
59009;BME280;44794;42.652;23.318;2022-12-18T07:10:41;95674.47;;;4.04;95.09
59009;BME280;44794;42.652;23.318;2022-12-18T07:13:07;95672.03;;;3.99;95.00
59009;BME280;44794;42.652;23.318;2022-12-18T07:15:36;95673.72;;;4.00;95.48
59009;BME280;44794;42.652;23.318;2022-12-18T07:18:04;95683.34;;;3.94;94.96
59009;BME280;44794;42.652;23.318;2022-12-18T07:20:29;95683.06;;;4.03;94.99
59009;BME280;44794;42.652;23.318;2022-12-18T07:22:54;95679.00;;;3.96;94.07
59009;BME280;44794;42.652;23.318;2022-12-18T07:25:21;95690.09;;;3.98;94.06
59009;BME280;44794;42.652;23.318;2022-12-18T07:27:46;95694.50;;;3.94;93.96
59009;BME280;44794;42.652;23.318;2022-12-18T07:30:12;95689.34;;;3.94;93.67
59009;BME280;44794;42.652;23.318;2022-12-18T07:32:37;95703.97;;;3.92;93.72
59009;BME280;44794;42.652;23.318;2022-12-18T07:35:03;95706.34;;;3.98;93.76
59009;BME280;44794;42.652;23.318;2022-12-18T07:37:28;95706.47;;;3.94;93.82
59009;BME280;44794;42.652;23.318;2022-12-18T07:39:54;95709.78;;;3.97;93.86
59009;BME280;44794;42.652;23.318;2022-12-18T07:42:19;95701.00;;;4.04;94.43
59009;BME280;44794;42.652;23.318;2022-12-18T07:44:57;95715.44;;;4.08;93.45
59009;BME280;44794;42.652;23.318;2022-12-18T07:47:23;95718.97;;;4.06;92.89
59009;BME280;44794;42.652;23.318;2022-12-18T07:49:49;95724.78;;;4.11;92.83
59009;BME280;44794;42.652;23.318;2022-12-18T07:52:14;95725.78;;;4.07;91.88
59009;BME280;44794;42.652;23.318;2022-12-18T07:54:40;95721.34;;;4.12;91.87
59009;BME280;44794;42.652;23.318;2022-12-18T07:57:06;95733.50;;;4.07;92.29
59009;BME280;44794;42.652;23.318;2022-12-18T07:59:32;95727.75;;;3.99;91.78
59009;BME280;44794;42.652;23.318;2022-12-18T08:01:57;95727.47;;;3.80;92.01
59009;BME280;44794;42.652;23.318;2022-12-18T08:04:24;95738.69;;;3.78;92.41
59009;BME280;44794;42.652;23.318;2022-12-18T08:06:49;95752.13;;;3.86;93.16
59009;BME280;44794;42.652;23.318;2022-12-18T08:09:14;95746.25;;;3.82;92.81
59009;BME280;44794;42.652;23.318;2022-12-18T08:11:40;95750.84;;;3.71;92.67
59009;BME280;44794;42.652;23.318;2022-12-18T08:14:05;95751.03;;;3.66;93.26
59009;BME280;44794;42.652;23.318;2022-12-18T08:16:31;95751.91;;;3.65;93.25
59009;BME280;44794;42.652;23.318;2022-12-18T08:18:56;95757.84;;;3.67;93.26
59009;BME280;44794;42.652;23.318;2022-12-18T08:21:45;95769.72;;;3.70;93.21
59009;BME280;44794;42.652;23.318;2022-12-18T08:24:14;95768.97;;;3.67;93.50
59009;BME280;44794;42.652;23.318;2022-12-18T08:26:39;95769.19;;;3.60;93.89
59009;BME280;44794;42.652;23.318;2022-12-18T08:29:11;95777.53;;;3.66;94.13
59009;BME280;44794;42.652;23.318;2022-12-18T08:31:37;95775.22;;;3.59;94.23
59009;BME280;44794;42.652;23.318;2022-12-18T08:34:03;95781.03;;;3.65;94.22
59009;BME280;44794;42.652;23.318;2022-12-18T08:36:28;95785.31;;;3.65;94.00
59009;BME280;44794;42.652;23.318;2022-12-18T08:38:54;95769.81;;;3.68;94.45
59009;BME280;44794;42.652;23.318;2022-12-18T08:41:20;95774.97;;;3.66;94.14
59009;BME280;44794;42.652;23.318;2022-12-18T08:43:45;95785.94;;;3.72;93.68
59009;BME280;44794;42.652;23.318;2022-12-18T08:46:35;95781.66;;;3.71;93.74
59009;BME280;44794;42.652;23.318;2022-12-18T08:49:02;95787.56;;;3.75;94.23
59009;BME280;44794;42.652;23.318;2022-12-18T08:51:27;95793.72;;;3.69;93.94
59009;BME280;44794;42.652;23.318;2022-12-18T08:53:53;95787.03;;;3.64;94.77
59009;BME280;44794;42.652;23.318;2022-12-18T08:56:18;95781.97;;;3.61;95.13
59009;BME280;44794;42.652;23.318;2022-12-18T08:58:44;95777.47;;;3.69;94.80
59009;BME280;44794;42.652;23.318;2022-12-18T09:01:11;95787.66;;;3.72;94.89
59009;BME280;44794;42.652;23.318;2022-12-18T09:03:37;95786.81;;;3.71;94.54
59009;BME280;44794;42.652;23.318;2022-12-18T09:06:03;95788.50;;;3.72;94.00
59009;BME280;44794;42.652;23.318;2022-12-18T09:08:29;95776.84;;;3.61;93.91
59009;BME280;44794;42.652;23.318;2022-12-18T09:10:55;95777.78;;;3.59;94.18
59009;BME280;44794;42.652;23.318;2022-12-18T09:13:20;95782.22;;;3.52;94.32
59009;BME280;44794;42.652;23.318;2022-12-18T09:15:51;95777.91;;;3.54;94.42
59009;BME280;44794;42.652;23.318;2022-12-18T09:18:19;95772.38;;;3.39;95.13
59009;BME280;44794;42.652;23.318;2022-12-18T09:20:46;95771.13;;;3.52;95.29
59009;BME280;44794;42.652;23.318;2022-12-18T09:23:12;95772.38;;;3.68;94.87
59009;BME280;44794;42.652;23.318;2022-12-18T09:25:41;95778.16;;;3.74;93.74
59009;BME280;44794;42.652;23.318;2022-12-18T09:28:13;95780.88;;;3.69;93.71
59009;BME280;44794;42.652;23.318;2022-12-18T09:30:40;95782.38;;;3.76;93.39
59009;BME280;44794;42.652;23.318;2022-12-18T09:33:06;95777.16;;;3.79;93.34
59009;BME280;44794;42.652;23.318;2022-12-18T09:35:32;95775.09;;;3.90;93.14
59009;BME280;44794;42.652;23.318;2022-12-18T09:37:58;95789.38;;;4.00;92.37
59009;BME280;44794;42.652;23.318;2022-12-18T09:40:25;95799.91;;;3.91;91.38
59009;BME280;44794;42.652;23.318;2022-12-18T09:42:57;95796.50;;;3.91;90.58
59009;BME280;44794;42.652;23.318;2022-12-18T09:45:23;95797.53;;;3.85;90.18
59009;BME280;44794;42.652;23.318;2022-12-18T09:47:50;95801.41;;;4.00;89.78
59009;BME280;44794;42.652;23.318;2022-12-18T09:50:25;95800.28;;;4.08;88.95
59009;BME280;44794;42.652;23.318;2022-12-18T09:52:54;95798.50;;;4.10;88.78
59009;BME280;44794;42.652;23.318;2022-12-18T09:55:30;95798.94;;;4.23;88.29
59009;BME280;44794;42.652;23.318;2022-12-18T10:01:01;95788.06;;;4.42;88.06
59009;BME280;44794;42.652;23.318;2022-12-18T10:03:27;95791.63;;;4.64;87.35
59009;BME280;44794;42.652;23.318;2022-12-18T10:06:14;95794.81;;;4.72;86.21
59009;BME280;44794;42.652;23.318;2022-12-18T10:14:49;95805.66;;;4.54;83.35
59009;BME280;44794;42.652;23.318;2022-12-18T10:20:04;95819.69;;;4.17;84.14
59009;BME280;44794;42.652;23.318;2022-12-18T10:25:29;95801.22;;;4.06;85.79
59009;BME280;44794;42.652;23.318;2022-12-18T10:28:10;95808.06;;;4.33;86.07
59009;BME280;44794;42.652;23.318;2022-12-18T10:30:38;95812.00;;;4.17;83.51
59009;BME280;44794;42.652;23.318;2022-12-18T10:33:04;95808.59;;;4.16;83.56
59009;BME280;44794;42.652;23.318;2022-12-18T10:35:29;95825.78;;;4.14;83.18
59009;BME280;44794;42.652;23.318;2022-12-18T10:43:22;95811.41;;;4.36;82.41
59009;BME280;44794;42.652;23.318;2022-12-18T10:46:17;95808.28;;;4.52;82.09
59009;BME280;44794;42.652;23.318;2022-12-18T10:48:52;95802.53;;;4.44;81.81
59009;BME280;44794;42.652;23.318;2022-12-18T10:51:30;95809.50;;;4.41;81.54
59009;BME280;44794;42.652;23.318;2022-12-18T10:54:02;95826.13;;;4.31;81.14
59009;BME280;44794;42.652;23.318;2022-12-18T10:56:30;95811.81;;;4.50;81.47
59009;BME280;44794;42.652;23.318;2022-12-18T11:01:26;95815.94;;;4.55;79.92
59009;BME280;44794;42.652;23.318;2022-12-18T11:06:20;95816.41;;;4.66;79.38
59009;BME280;44794;42.652;23.318;2022-12-18T11:09:00;95822.63;;;4.87;78.52
59009;BME280;44794;42.652;23.318;2022-12-18T11:11:26;95837.53;;;4.50;75.47
59009;BME280;44794;42.652;23.318;2022-12-18T11:14:06;95827.50;;;4.41;76.39
59009;BME280;44794;42.652;23.318;2022-12-18T11:16:46;95816.84;;;4.53;77.27
59009;BME280;44794;42.652;23.318;2022-12-18T11:19:34;95830.34;;;4.34;76.02
59009;BME280;44794;42.652;23.318;2022-12-18T11:22:02;95830.22;;;4.37;76.47
59009;BME280;44794;42.652;23.318;2022-12-18T11:24:34;95835.78;;;4.50;76.56
59009;BME280;44794;42.652;23.318;2022-12-18T11:27:02;95830.28;;;4.62;76.59
59009;BME280;44794;42.652;23.318;2022-12-18T11:29:35;95824.97;;;4.93;76.61
59009;BME280;44794;42.652;23.318;2022-12-18T11:32:23;95831.66;;;4.72;74.56
59009;BME280;44794;42.652;23.318;2022-12-18T11:34:55;95833.59;;;4.66;74.87
59009;BME280;44794;42.652;23.318;2022-12-18T11:37:23;95839.06;;;4.55;75.49
59009;BME280;44794;42.652;23.318;2022-12-18T11:40:06;95822.50;;;4.64;75.88
59009;BME280;44794;42.652;23.318;2022-12-18T11:45:34;95834.91;;;4.77;74.69
59009;BME280;44794;42.652;23.318;2022-12-18T11:48:17;95839.22;;;4.77;73.55
59009;BME280;44794;42.652;23.318;2022-12-18T11:50:49;95843.28;;;4.58;72.71
59009;BME280;44794;42.652;23.318;2022-12-18T11:53:16;95850.13;;;4.59;72.79
59009;BME280;44794;42.652;23.318;2022-12-18T12:09:32;95830.56;;;4.53;74.41
59009;BME280;44794;42.652;23.318;2022-12-18T12:14:36;95827.31;;;4.47;75.75
59009;BME280;44794;42.652;23.318;2022-12-18T12:19:39;95821.91;;;4.56;75.89
59009;BME280;44794;42.652;23.318;2022-12-18T12:22:17;95822.69;;;4.58;75.97
59009;BME280;44794;42.652;23.318;2022-12-18T12:27:39;95812.09;;;4.41;76.06
59009;BME280;44794;42.652;23.318;2022-12-18T12:30:18;95823.06;;;4.46;76.25
59009;BME280;44794;42.652;23.318;2022-12-18T12:36:18;95831.69;;;4.45;76.37
59009;BME280;44794;42.652;23.318;2022-12-18T12:38:52;95832.09;;;4.59;76.38
59009;BME280;44794;42.652;23.318;2022-12-18T12:41:23;95832.78;;;4.64;75.96
59009;BME280;44794;42.652;23.318;2022-12-18T12:44:30;95833.81;;;4.58;76.35
59009;BME280;44794;42.652;23.318;2022-12-18T12:47:01;95824.97;;;4.67;76.62
59009;BME280;44794;42.652;23.318;2022-12-18T12:49:31;95826.44;;;4.74;76.85
59009;BME280;44794;42.652;23.318;2022-12-18T12:52:31;95848.84;;;4.70;77.03
59009;BME280;44794;42.652;23.318;2022-12-18T12:55:00;95834.28;;;4.71;77.23
59009;BME280;44794;42.652;23.318;2022-12-18T12:57:34;95831.81;;;4.94;77.55
59009;BME280;44794;42.652;23.318;2022-12-18T13:05:44;95839.72;;;4.88;77.79
59009;BME280;44794;42.652;23.318;2022-12-18T13:08:24;95841.72;;;4.80;77.80
59009;BME280;44794;42.652;23.318;2022-12-18T13:10:51;95844.84;;;4.62;77.66
59009;BME280;44794;42.652;23.318;2022-12-18T13:13:51;95861.38;;;4.55;77.50
59009;BME280;44794;42.652;23.318;2022-12-18T13:16:21;95859.69;;;4.54;78.10
59009;BME280;44794;42.652;23.318;2022-12-18T13:19:18;95857.84;;;4.57;78.48
59009;BME280;44794;42.652;23.318;2022-12-18T13:21:53;95848.44;;;4.58;78.18
59009;BME280;44794;42.652;23.318;2022-12-18T13:24:27;95863.38;;;4.45;78.03
59009;BME280;44794;42.652;23.318;2022-12-18T13:26:55;95864.13;;;4.49;78.19
59009;BME280;44794;42.652;23.318;2022-12-18T13:29:41;95872.59;;;4.52;78.47
59009;BME280;44794;42.652;23.318;2022-12-18T13:32:22;95869.84;;;4.58;78.84
59009;BME280;44794;42.652;23.318;2022-12-18T13:34:47;95877.06;;;4.47;78.75
59009;BME280;44794;42.652;23.318;2022-12-18T13:39:56;95867.28;;;4.31;78.83
59009;BME280;44794;42.652;23.318;2022-12-18T13:42:35;95862.91;;;4.33;79.06
59009;BME280;44794;42.652;23.318;2022-12-18T13:48:26;95881.63;;;4.38;79.07
59009;BME280;44794;42.652;23.318;2022-12-18T13:50:58;95883.22;;;4.42;79.26
59009;BME280;44794;42.652;23.318;2022-12-18T13:53:52;95878.00;;;4.43;79.74
59009;BME280;44794;42.652;23.318;2022-12-18T13:56:24;95890.84;;;4.45;79.48
59009;BME280;44794;42.652;23.318;2022-12-18T13:59:25;95894.19;;;4.47;79.65
59009;BME280;44794;42.652;23.318;2022-12-18T14:01:59;95888.69;;;4.59;79.88
59009;BME280;44794;42.652;23.318;2022-12-18T14:04:29;95891.06;;;4.65;79.60
59009;BME280;44794;42.652;23.318;2022-12-18T14:07:13;95896.31;;;4.62;79.49
59009;BME280;44794;42.652;23.318;2022-12-18T14:09:45;95892.41;;;4.49;79.16
59009;BME280;44794;42.652;23.318;2022-12-18T14:12:20;95895.19;;;4.43;79.71
59009;BME280;44794;42.652;23.318;2022-12-18T14:17:36;95892.13;;;4.31;78.23
59009;BME280;44794;42.652;23.318;2022-12-18T14:20:02;95911.13;;;4.25;77.22
59009;BME280;44794;42.652;23.318;2022-12-18T14:22:28;95913.19;;;4.14;77.09
59009;BME280;44794;42.652;23.318;2022-12-18T14:27:37;95920.09;;;4.12;76.92
59009;BME280;44794;42.652;23.318;2022-12-18T14:30:58;95910.91;;;4.04;76.71
59009;BME280;44794;42.652;23.318;2022-12-18T14:33:18;95913.34;;;4.08;76.94
59009;BME280;44794;42.652;23.318;2022-12-18T14:38:35;95916.75;;;4.09;76.59
59009;BME280;44794;42.652;23.318;2022-12-18T14:41:03;95915.13;;;4.06;76.43
59009;BME280;44794;42.652;23.318;2022-12-18T14:43:33;95913.31;;;4.10;76.95
59009;BME280;44794;42.652;23.318;2022-12-18T14:45:59;95907.34;;;4.09;76.65
59009;BME280;44794;42.652;23.318;2022-12-18T14:48:40;95912.66;;;4.02;76.54
59009;BME280;44794;42.652;23.318;2022-12-18T14:51:13;95918.69;;;4.02;76.12
59009;BME280;44794;42.652;23.318;2022-12-18T14:53:44;95909.31;;;4.00;75.86